sensor_id;sensor_type;location;lat;lon;timestamp;P1;durP1;ratioP1;P2;durP2;ratioP2
82760;SDS011;72498;42.022;21.444;2023-12-14T00:08:29;154.93;;;79.70;;
82760;SDS011;72498;42.022;21.444;2023-12-14T00:11:13;137.98;;;70.55;;
82760;SDS011;72498;42.022;21.444;2023-12-14T00:13:40;150.18;;;72.72;;
82760;SDS011;72498;42.022;21.444;2023-12-14T00:16:08;139.93;;;72.00;;
82760;SDS011;72498;42.022;21.444;2023-12-14T00:18:35;139.20;;;69.90;;
82760;SDS011;72498;42.022;21.444;2023-12-14T00:21:05;130.77;;;66.60;;
82760;SDS011;72498;42.022;21.444;2023-12-14T00:23:37;140.23;;;71.10;;
82760;SDS011;72498;42.022;21.444;2023-12-14T00:26:10;136.63;;;69.15;;
82760;SDS011;72498;42.022;21.444;2023-12-14T00:28:57;132.60;;;67.53;;
82760;SDS011;72498;42.022;21.444;2023-12-14T00:31:23;144.15;;;70.00;;
82760;SDS011;72498;42.022;21.444;2023-12-14T00:33:59;135.38;;;68.93;;
82760;SDS011;72498;42.022;21.444;2023-12-14T00:36:32;131.52;;;67.00;;
82760;SDS011;72498;42.022;21.444;2023-12-14T00:39:01;131.20;;;68.15;;
82760;SDS011;72498;42.022;21.444;2023-12-14T00:41:29;129.88;;;67.45;;
82760;SDS011;72498;42.022;21.444;2023-12-14T00:43:56;137.88;;;73.65;;
82760;SDS011;72498;42.022;21.444;2023-12-14T00:46:22;128.77;;;69.85;;
82760;SDS011;72498;42.022;21.444;2023-12-14T00:48:48;133.68;;;69.53;;
82760;SDS011;72498;42.022;21.444;2023-12-14T00:51:15;139.20;;;72.57;;
82760;SDS011;72498;42.022;21.444;2023-12-14T00:53:43;141.27;;;73.78;;
82760;SDS011;72498;42.022;21.444;2023-12-14T00:56:09;154.90;;;74.85;;
82760;SDS011;72498;42.022;21.444;2023-12-14T00:58:35;146.05;;;80.82;;
82760;SDS011;72498;42.022;21.444;2023-12-14T01:01:01;142.57;;;82.72;;
82760;SDS011;72498;42.022;21.444;2023-12-14T01:03:28;170.38;;;92.35;;
82760;SDS011;72498;42.022;21.444;2023-12-14T01:05:55;166.13;;;85.75;;
82760;SDS011;72498;42.022;21.444;2023-12-14T01:08:21;163.73;;;86.22;;
82760;SDS011;72498;42.022;21.444;2023-12-14T01:10:47;160.40;;;82.45;;
82760;SDS011;72498;42.022;21.444;2023-12-14T01:13:14;156.45;;;82.50;;
82760;SDS011;72498;42.022;21.444;2023-12-14T01:15:41;155.98;;;78.88;;
82760;SDS011;72498;42.022;21.444;2023-12-14T01:18:07;157.85;;;81.95;;
82760;SDS011;72498;42.022;21.444;2023-12-14T01:20:33;151.98;;;79.40;;
82760;SDS011;72498;42.022;21.444;2023-12-14T01:22:59;163.77;;;87.30;;
82760;SDS011;72498;42.022;21.444;2023-12-14T01:25:25;161.75;;;83.07;;
82760;SDS011;72498;42.022;21.444;2023-12-14T01:27:51;155.63;;;82.07;;
82760;SDS011;72498;42.022;21.444;2023-12-14T01:30:18;152.63;;;80.45;;
82760;SDS011;72498;42.022;21.444;2023-12-14T01:32:44;153.10;;;86.80;;
82760;SDS011;72498;42.022;21.444;2023-12-14T01:35:10;158.23;;;84.15;;
82760;SDS011;72498;42.022;21.444;2023-12-14T01:37:36;153.88;;;82.95;;
82760;SDS011;72498;42.022;21.444;2023-12-14T01:40:02;163.57;;;85.95;;
82760;SDS011;72498;42.022;21.444;2023-12-14T01:42:28;145.50;;;82.15;;
82760;SDS011;72498;42.022;21.444;2023-12-14T01:44:54;154.43;;;85.25;;
82760;SDS011;72498;42.022;21.444;2023-12-14T01:47:21;161.60;;;83.32;;
82760;SDS011;72498;42.022;21.444;2023-12-14T01:49:47;152.02;;;82.95;;
82760;SDS011;72498;42.022;21.444;2023-12-14T01:52:13;153.10;;;83.18;;
82760;SDS011;72498;42.022;21.444;2023-12-14T01:54:39;154.75;;;79.13;;
82760;SDS011;72498;42.022;21.444;2023-12-14T01:57:05;134.38;;;72.50;;
82760;SDS011;72498;42.022;21.444;2023-12-14T01:59:32;131.48;;;70.88;;
82760;SDS011;72498;42.022;21.444;2023-12-14T02:01:58;137.88;;;68.60;;
82760;SDS011;72498;42.022;21.444;2023-12-14T02:04:26;140.75;;;72.00;;
82760;SDS011;72498;42.022;21.444;2023-12-14T02:06:52;120.60;;;64.05;;
82760;SDS011;72498;42.022;21.444;2023-12-14T02:09:18;114.05;;;62.63;;
82760;SDS011;72498;42.022;21.444;2023-12-14T02:11:44;117.68;;;64.05;;
82760;SDS011;72498;42.022;21.444;2023-12-14T02:14:13;115.55;;;61.20;;
82760;SDS011;72498;42.022;21.444;2023-12-14T02:16:39;118.78;;;61.80;;
82760;SDS011;72498;42.022;21.444;2023-12-14T02:19:05;122.85;;;62.20;;
82760;SDS011;72498;42.022;21.444;2023-12-14T02:21:31;120.07;;;63.22;;
82760;SDS011;72498;42.022;21.444;2023-12-14T02:23:58;117.68;;;62.53;;
82760;SDS011;72498;42.022;21.444;2023-12-14T02:26:24;116.85;;;61.33;;
82760;SDS011;72498;42.022;21.444;2023-12-14T02:28:50;121.90;;;62.83;;
82760;SDS011;72498;42.022;21.444;2023-12-14T02:31:17;133.65;;;69.75;;
82760;SDS011;72498;42.022;21.444;2023-12-14T02:33:43;124.00;;;65.30;;
82760;SDS011;72498;42.022;21.444;2023-12-14T02:36:21;124.30;;;65.18;;
82760;SDS011;72498;42.022;21.444;2023-12-14T02:38:47;120.25;;;64.82;;
82760;SDS011;72498;42.022;21.444;2023-12-14T02:41:14;124.05;;;65.28;;
82760;SDS011;72498;42.022;21.444;2023-12-14T02:43:40;114.43;;;63.10;;
82760;SDS011;72498;42.022;21.444;2023-12-14T02:46:06;121.30;;;63.20;;
82760;SDS011;72498;42.022;21.444;2023-12-14T02:48:32;113.40;;;65.22;;
82760;SDS011;72498;42.022;21.444;2023-12-14T02:50:59;117.90;;;61.00;;
82760;SDS011;72498;42.022;21.444;2023-12-14T02:53:25;118.22;;;61.70;;
82760;SDS011;72498;42.022;21.444;2023-12-14T02:55:51;117.72;;;60.95;;
82760;SDS011;72498;42.022;21.444;2023-12-14T02:58:51;112.35;;;59.95;;
82760;SDS011;72498;42.022;21.444;2023-12-14T03:01:15;118.20;;;61.33;;
82760;SDS011;72498;42.022;21.444;2023-12-14T03:03:46;109.40;;;60.03;;
82760;SDS011;72498;42.022;21.444;2023-12-14T03:06:12;123.60;;;63.92;;
82760;SDS011;72498;42.022;21.444;2023-12-14T03:08:38;133.52;;;69.22;;
82760;SDS011;72498;42.022;21.444;2023-12-14T03:11:05;125.38;;;63.13;;
82760;SDS011;72498;42.022;21.444;2023-12-14T03:13:37;128.60;;;67.68;;
82760;SDS011;72498;42.022;21.444;2023-12-14T03:16:21;124.55;;;62.90;;
82760;SDS011;72498;42.022;21.444;2023-12-14T03:18:47;132.32;;;69.15;;
82760;SDS011;72498;42.022;21.444;2023-12-14T03:21:17;129.90;;;65.57;;
82760;SDS011;72498;42.022;21.444;2023-12-14T03:23:43;137.20;;;65.47;;
82760;SDS011;72498;42.022;21.444;2023-12-14T03:26:10;120.82;;;64.72;;
82760;SDS011;72498;42.022;21.444;2023-12-14T03:28:36;138.63;;;68.78;;
82760;SDS011;72498;42.022;21.444;2023-12-14T03:31:03;131.80;;;68.70;;
82760;SDS011;72498;42.022;21.444;2023-12-14T03:33:29;132.30;;;68.22;;
82760;SDS011;72498;42.022;21.444;2023-12-14T03:35:58;133.45;;;66.88;;
82760;SDS011;72498;42.022;21.444;2023-12-14T03:38:24;137.65;;;68.70;;
82760;SDS011;72498;42.022;21.444;2023-12-14T03:40:50;130.95;;;61.97;;
82760;SDS011;72498;42.022;21.444;2023-12-14T03:43:17;124.53;;;67.90;;
82760;SDS011;72498;42.022;21.444;2023-12-14T03:45:43;135.63;;;70.10;;
82760;SDS011;72498;42.022;21.444;2023-12-14T03:48:10;124.43;;;65.55;;
82760;SDS011;72498;42.022;21.444;2023-12-14T03:50:36;140.48;;;69.20;;
82760;SDS011;72498;42.022;21.444;2023-12-14T03:53:02;125.30;;;68.53;;
82760;SDS011;72498;42.022;21.444;2023-12-14T03:55:28;136.15;;;72.68;;
82760;SDS011;72498;42.022;21.444;2023-12-14T03:57:54;120.00;;;66.05;;
82760;SDS011;72498;42.022;21.444;2023-12-14T04:00:20;134.20;;;67.40;;
82760;SDS011;72498;42.022;21.444;2023-12-14T04:02:46;132.30;;;66.38;;
82760;SDS011;72498;42.022;21.444;2023-12-14T04:05:13;137.82;;;66.55;;
82760;SDS011;72498;42.022;21.444;2023-12-14T04:07:39;122.60;;;64.68;;
82760;SDS011;72498;42.022;21.444;2023-12-14T04:10:08;130.25;;;69.90;;
82760;SDS011;72498;42.022;21.444;2023-12-14T04:12:44;128.73;;;70.38;;
82760;SDS011;72498;42.022;21.444;2023-12-14T04:15:10;128.63;;;66.90;;
82760;SDS011;72498;42.022;21.444;2023-12-14T04:17:36;132.45;;;68.03;;
82760;SDS011;72498;42.022;21.444;2023-12-14T04:20:03;124.10;;;66.53;;
82760;SDS011;72498;42.022;21.444;2023-12-14T04:22:31;126.13;;;66.78;;
82760;SDS011;72498;42.022;21.444;2023-12-14T04:24:57;124.35;;;67.53;;
82760;SDS011;72498;42.022;21.444;2023-12-14T04:27:23;128.65;;;69.05;;
82760;SDS011;72498;42.022;21.444;2023-12-14T04:29:53;128.02;;;68.00;;
82760;SDS011;72498;42.022;21.444;2023-12-14T04:32:19;119.78;;;61.60;;
82760;SDS011;72498;42.022;21.444;2023-12-14T04:34:45;121.03;;;63.20;;
82760;SDS011;72498;42.022;21.444;2023-12-14T04:37:11;125.72;;;66.32;;
82760;SDS011;72498;42.022;21.444;2023-12-14T04:39:37;116.28;;;61.42;;
82760;SDS011;72498;42.022;21.444;2023-12-14T04:42:04;123.03;;;65.82;;
82760;SDS011;72498;42.022;21.444;2023-12-14T04:44:30;126.00;;;65.13;;
82760;SDS011;72498;42.022;21.444;2023-12-14T04:46:56;126.00;;;69.15;;
82760;SDS011;72498;42.022;21.444;2023-12-14T04:49:24;132.73;;;67.70;;
82760;SDS011;72498;42.022;21.444;2023-12-14T04:51:50;125.20;;;67.65;;
82760;SDS011;72498;42.022;21.444;2023-12-14T04:54:16;126.53;;;68.97;;
82760;SDS011;72498;42.022;21.444;2023-12-14T04:56:45;128.50;;;71.22;;
82760;SDS011;72498;42.022;21.444;2023-12-14T04:59:11;129.77;;;70.63;;
82760;SDS011;72498;42.022;21.444;2023-12-14T05:01:37;139.15;;;69.13;;
82760;SDS011;72498;42.022;21.444;2023-12-14T05:04:03;129.15;;;67.57;;
82760;SDS011;72498;42.022;21.444;2023-12-14T05:06:30;127.90;;;68.82;;
82760;SDS011;72498;42.022;21.444;2023-12-14T05:08:58;120.75;;;65.10;;
82760;SDS011;72498;42.022;21.444;2023-12-14T05:11:26;138.93;;;69.82;;
82760;SDS011;72498;42.022;21.444;2023-12-14T05:13:52;122.88;;;65.40;;
82760;SDS011;72498;42.022;21.444;2023-12-14T05:16:19;126.32;;;66.38;;
82760;SDS011;72498;42.022;21.444;2023-12-14T05:18:46;119.15;;;64.65;;
82760;SDS011;72498;42.022;21.444;2023-12-14T05:21:21;126.97;;;65.82;;
82760;SDS011;72498;42.022;21.444;2023-12-14T05:23:47;121.25;;;64.25;;
82760;SDS011;72498;42.022;21.444;2023-12-14T05:26:13;124.38;;;68.70;;
82760;SDS011;72498;42.022;21.444;2023-12-14T05:28:39;141.77;;;72.00;;
82760;SDS011;72498;42.022;21.444;2023-12-14T05:31:06;117.38;;;66.70;;
82760;SDS011;72498;42.022;21.444;2023-12-14T05:33:36;122.53;;;66.60;;
82760;SDS011;72498;42.022;21.444;2023-12-14T05:36:02;103.50;;;60.88;;
82760;SDS011;72498;42.022;21.444;2023-12-14T05:38:31;121.45;;;69.55;;
82760;SDS011;72498;42.022;21.444;2023-12-14T05:40:57;90.85;;;48.13;;
82760;SDS011;72498;42.022;21.444;2023-12-14T05:43:23;69.20;;;40.85;;
82760;SDS011;72498;42.022;21.444;2023-12-14T05:45:49;75.03;;;39.72;;
82760;SDS011;72498;42.022;21.444;2023-12-14T05:48:15;187.48;;;107.82;;
82760;SDS011;72498;42.022;21.444;2023-12-14T05:50:42;86.28;;;47.65;;
82760;SDS011;72498;42.022;21.444;2023-12-14T05:53:08;67.88;;;36.20;;
82760;SDS011;72498;42.022;21.444;2023-12-14T05:55:34;78.93;;;38.63;;
82760;SDS011;72498;42.022;21.444;2023-12-14T05:58:01;99.60;;;52.05;;
82760;SDS011;72498;42.022;21.444;2023-12-14T06:00:28;148.18;;;82.85;;
82760;SDS011;72498;42.022;21.444;2023-12-14T06:03:14;122.93;;;58.35;;
82760;SDS011;72498;42.022;21.444;2023-12-14T06:05:40;127.70;;;60.55;;
82760;SDS011;72498;42.022;21.444;2023-12-14T06:08:07;173.90;;;91.47;;
82760;SDS011;72498;42.022;21.444;2023-12-14T06:10:33;168.48;;;86.10;;
82760;SDS011;72498;42.022;21.444;2023-12-14T06:12:59;164.77;;;87.43;;
82760;SDS011;72498;42.022;21.444;2023-12-14T06:15:25;137.82;;;73.95;;
82760;SDS011;72498;42.022;21.444;2023-12-14T06:17:52;151.13;;;81.05;;
82760;SDS011;72498;42.022;21.444;2023-12-14T06:20:21;125.55;;;66.10;;
82760;SDS011;72498;42.022;21.444;2023-12-14T06:26:07;136.45;;;71.85;;
82760;SDS011;72498;42.022;21.444;2023-12-14T06:29:02;126.47;;;64.97;;
82760;SDS011;72498;42.022;21.444;2023-12-14T06:31:37;150.00;;;81.75;;
82760;SDS011;72498;42.022;21.444;2023-12-14T06:34:20;166.30;;;78.90;;
82760;SDS011;72498;42.022;21.444;2023-12-14T06:40:20;73.32;;;41.47;;
82760;SDS011;72498;42.022;21.444;2023-12-14T06:42:46;84.55;;;43.60;;
82760;SDS011;72498;42.022;21.444;2023-12-14T06:45:16;78.30;;;40.80;;
82760;SDS011;72498;42.022;21.444;2023-12-14T06:48:00;76.95;;;38.10;;
82760;SDS011;72498;42.022;21.444;2023-12-14T06:51:22;76.40;;;39.55;;
82760;SDS011;72498;42.022;21.444;2023-12-14T06:53:55;91.18;;;47.22;;
82760;SDS011;72498;42.022;21.444;2023-12-14T06:56:35;95.03;;;52.90;;
82760;SDS011;72498;42.022;21.444;2023-12-14T08:11:34;101.03;;;53.03;;
82760;SDS011;72498;42.022;21.444;2023-12-14T08:17:37;80.38;;;48.95;;
82760;SDS011;72498;42.022;21.444;2023-12-14T10:22:05;56.25;;;31.85;;
82760;SDS011;72498;42.022;21.444;2023-12-14T10:38:20;55.42;;;32.42;;
82760;SDS011;72498;42.022;21.444;2023-12-14T10:41:06;57.28;;;34.28;;
82760;SDS011;72498;42.022;21.444;2023-12-14T10:43:36;55.97;;;30.90;;
82760;SDS011;72498;42.022;21.444;2023-12-14T10:46:04;57.13;;;31.50;;
82760;SDS011;72498;42.022;21.444;2023-12-14T10:48:32;66.82;;;40.00;;
82760;SDS011;72498;42.022;21.444;2023-12-14T10:51:01;60.42;;;39.00;;
82760;SDS011;72498;42.022;21.444;2023-12-14T10:53:30;60.15;;;41.47;;
82760;SDS011;72498;42.022;21.444;2023-12-14T10:55:59;69.20;;;38.20;;
82760;SDS011;72498;42.022;21.444;2023-12-14T11:01:01;65.07;;;37.47;;
82760;SDS011;72498;42.022;21.444;2023-12-14T11:03:42;61.60;;;37.15;;
82760;SDS011;72498;42.022;21.444;2023-12-14T11:32:30;35.00;;;20.73;;
82760;SDS011;72498;42.022;21.444;2023-12-14T11:34:57;37.28;;;21.15;;
82760;SDS011;72498;42.022;21.444;2023-12-14T11:37:33;25.80;;;14.30;;
82760;SDS011;72498;42.022;21.444;2023-12-14T11:40:20;34.47;;;18.13;;
82760;SDS011;72498;42.022;21.444;2023-12-14T11:43:03;35.50;;;18.65;;
82760;SDS011;72498;42.022;21.444;2023-12-14T11:45:37;32.53;;;21.65;;
82760;SDS011;72498;42.022;21.444;2023-12-14T11:48:04;33.78;;;19.73;;
82760;SDS011;72498;42.022;21.444;2023-12-14T11:53:07;31.58;;;18.45;;
82760;SDS011;72498;42.022;21.444;2023-12-14T11:55:37;42.65;;;22.25;;
82760;SDS011;72498;42.022;21.444;2023-12-14T11:58:08;33.40;;;19.88;;
82760;SDS011;72498;42.022;21.444;2023-12-14T12:00:40;38.10;;;21.63;;
82760;SDS011;72498;42.022;21.444;2023-12-14T12:03:19;38.70;;;21.17;;
82760;SDS011;72498;42.022;21.444;2023-12-14T12:05:54;35.35;;;20.40;;
82760;SDS011;72498;42.022;21.444;2023-12-14T12:08:22;31.70;;;18.70;;
82760;SDS011;72498;42.022;21.444;2023-12-14T12:10:49;24.42;;;14.20;;
82760;SDS011;72498;42.022;21.444;2023-12-14T12:13:19;37.25;;;18.67;;
82760;SDS011;72498;42.022;21.444;2023-12-14T14:08:57;10.45;;;3.80;;
82760;SDS011;72498;42.022;21.444;2023-12-14T14:11:24;8.50;;;3.65;;
82760;SDS011;72498;42.022;21.444;2023-12-14T14:13:51;7.45;;;3.80;;
82760;SDS011;72498;42.022;21.444;2023-12-14T14:18:56;7.38;;;2.58;;
82760;SDS011;72498;42.022;21.444;2023-12-14T14:21:23;8.20;;;3.30;;
82760;SDS011;72498;42.022;21.444;2023-12-14T14:23:50;5.40;;;2.05;;
82760;SDS011;72498;42.022;21.444;2023-12-14T14:26:16;6.30;;;2.75;;
82760;SDS011;72498;42.022;21.444;2023-12-14T14:28:43;7.78;;;3.92;;
82760;SDS011;72498;42.022;21.444;2023-12-14T14:31:12;12.73;;;6.25;;
82760;SDS011;72498;42.022;21.444;2023-12-14T14:33:44;21.23;;;8.15;;
82760;SDS011;72498;42.022;21.444;2023-12-14T16:16:03;13.88;;;8.52;;
82760;SDS011;72498;42.022;21.444;2023-12-14T16:18:30;13.50;;;6.35;;
82760;SDS011;72498;42.022;21.444;2023-12-14T16:23:47;16.27;;;7.88;;
82760;SDS011;72498;42.022;21.444;2023-12-14T16:26:18;12.73;;;6.97;;
82760;SDS011;72498;42.022;21.444;2023-12-14T16:28:48;13.43;;;7.47;;
82760;SDS011;72498;42.022;21.444;2023-12-14T16:31:17;18.85;;;10.25;;
82760;SDS011;72498;42.022;21.444;2023-12-14T16:46:44;19.85;;;11.60;;
82760;SDS011;72498;42.022;21.444;2023-12-14T16:49:10;16.60;;;9.93;;
82760;SDS011;72498;42.022;21.444;2023-12-14T16:51:37;15.40;;;9.15;;
82760;SDS011;72498;42.022;21.444;2023-12-14T19:42:00;6.97;;;2.75;;
82760;SDS011;72498;42.022;21.444;2023-12-14T19:44:27;8.10;;;2.55;;
82760;SDS011;72498;42.022;21.444;2023-12-14T19:47:13;5.20;;;2.00;;
82760;SDS011;72498;42.022;21.444;2023-12-14T22:11:40;10.63;;;4.55;;
82760;SDS011;72498;42.022;21.444;2023-12-14T22:14:08;8.20;;;4.47;;
82760;SDS011;72498;42.022;21.444;2023-12-14T22:16:51;10.70;;;4.80;;
82760;SDS011;72498;42.022;21.444;2023-12-14T22:19:38;9.65;;;4.63;;
82760;SDS011;72498;42.022;21.444;2023-12-14T22:22:22;11.02;;;5.68;;
82760;SDS011;72498;42.022;21.444;2023-12-14T22:24:52;10.18;;;5.05;;
82760;SDS011;72498;42.022;21.444;2023-12-14T22:27:18;11.07;;;4.85;;
82760;SDS011;72498;42.022;21.444;2023-12-14T22:29:44;12.50;;;5.15;;
82760;SDS011;72498;42.022;21.444;2023-12-14T22:32:13;13.85;;;5.78;;
82760;SDS011;72498;42.022;21.444;2023-12-14T22:37:49;10.60;;;5.15;;
82760;SDS011;72498;42.022;21.444;2023-12-14T22:40:18;10.57;;;4.97;;
82760;SDS011;72498;42.022;21.444;2023-12-14T22:42:50;11.25;;;5.78;;
82760;SDS011;72498;42.022;21.444;2023-12-14T22:45:37;12.60;;;7.15;;
82760;SDS011;72498;42.022;21.444;2023-12-14T22:48:03;10.05;;;5.22;;
82760;SDS011;72498;42.022;21.444;2023-12-14T22:50:31;8.60;;;3.55;;
82760;SDS011;72498;42.022;21.444;2023-12-14T22:52:57;9.15;;;4.32;;
82760;SDS011;72498;42.022;21.444;2023-12-14T22:55:25;8.02;;;3.83;;
82760;SDS011;72498;42.022;21.444;2023-12-14T22:57:55;9.70;;;4.35;;
82760;SDS011;72498;42.022;21.444;2023-12-14T23:05:40;9.50;;;3.72;;
82760;SDS011;72498;42.022;21.444;2023-12-14T23:08:14;10.18;;;4.30;;
82760;SDS011;72498;42.022;21.444;2023-12-14T23:10:41;9.75;;;5.22;;
82760;SDS011;72498;42.022;21.444;2023-12-14T23:13:10;9.25;;;4.53;;
82760;SDS011;72498;42.022;21.444;2023-12-14T23:15:38;10.30;;;4.20;;
82760;SDS011;72498;42.022;21.444;2023-12-14T23:20:35;11.57;;;4.47;;
82760;SDS011;72498;42.022;21.444;2023-12-14T23:23:01;10.65;;;4.85;;
82760;SDS011;72498;42.022;21.444;2023-12-14T23:25:28;9.90;;;5.38;;
82760;SDS011;72498;42.022;21.444;2023-12-14T23:27:56;12.05;;;5.03;;
82760;SDS011;72498;42.022;21.444;2023-12-14T23:30:25;10.02;;;5.15;;
82760;SDS011;72498;42.022;21.444;2023-12-14T23:32:53;8.73;;;4.47;;
82760;SDS011;72498;42.022;21.444;2023-12-14T23:35:21;8.82;;;4.65;;
82760;SDS011;72498;42.022;21.444;2023-12-14T23:37:52;9.15;;;4.30;;
82760;SDS011;72498;42.022;21.444;2023-12-14T23:45:31;6.97;;;3.40;;
82760;SDS011;72498;42.022;21.444;2023-12-14T23:48:00;6.50;;;3.00;;
82760;SDS011;72498;42.022;21.444;2023-12-14T23:50:26;8.10;;;3.47;;
82760;SDS011;72498;42.022;21.444;2023-12-14T23:52:52;7.95;;;3.75;;
82760;SDS011;72498;42.022;21.444;2023-12-14T23:55:19;7.72;;;3.92;;
82760;SDS011;72498;42.022;21.444;2023-12-14T23:57:45;7.15;;;3.58;;
